Time;durP1;ratioP1;P1;durP2;ratioP2;P2;SDS_P1;SDS_P2;PMS_P1;PMS_P2;Temp;Humidity;BMP_temperature;BMP_pressure;BME280_temperature;BME280_humidity;BME280_pressure;Samples;Min_cycle;Max_cycle;Signal;HPM_P1;HPM_P2
2024/01/09 00:01:45;;;;;;;11.97;5.73;;;-2.00;99.90;;;;;;7289527;19;20202;-81
2024/01/09 00:04:11;;;;;;;13.83;6.33;;;-2.00;99.90;;;;;;7288009;19;20202;-81
2024/01/09 00:06:39;;;;;;;16.37;6.77;;;-2.10;99.90;;;;;;7291231;19;20197;-85
2024/01/09 00:09:05;;;;;;;13.57;6.53;;;-2.10;99.90;;;;;;7289645;19;20209;-81
2024/01/09 00:11:33;;;;;;;14.30;5.80;;;-2.00;99.90;;;;;;7293534;19;20237;-85
2024/01/09 00:14:00;;;;;;;14.00;5.90;;;-2.10;99.90;;;;;;7283369;19;20287;-81
2024/01/09 00:16:26;;;;;;;15.73;5.87;;;-2.10;99.90;;;;;;7276505;19;20269;-80
2024/01/09 00:18:55;;;;;;;11.87;5.50;;;-2.10;99.90;;;;;;7306238;19;20287;-80
2024/01/09 00:21:21;;;;;;;13.20;5.20;;;-2.20;99.90;;;;;;7285871;19;20564;-81
2024/01/09 00:23:46;;;;;;;13.87;5.60;;;-2.20;99.90;;;;;;7285171;19;20279;-80
2024/01/09 00:26:13;;;;;;;13.30;6.30;;;-2.20;99.90;;;;;;7311599;19;20218;-81
2024/01/09 00:28:39;;;;;;;13.87;6.13;;;-2.10;99.90;;;;;;7290651;19;20193;-81
2024/01/09 00:31:05;;;;;;;15.30;6.07;;;-2.10;99.90;;;;;;7295566;19;20196;-84
2024/01/09 00:33:34;;;;;;;16.30;6.53;;;-2.20;99.90;;;;;;7302082;19;20199;-80
2024/01/09 00:36:04;;;;;;;14.73;6.33;;;-2.20;99.90;;;;;;7303237;19;20288;-82
2024/01/09 00:38:34;;;;;;;11.40;5.67;;;-2.20;99.90;;;;;;7296396;19;20203;-82
2024/01/09 00:41:00;;;;;;;13.47;5.60;;;-2.10;99.90;;;;;;7289508;19;20202;-85
2024/01/09 00:43:26;;;;;;;13.17;5.80;;;-2.10;99.90;;;;;;7292929;19;20185;-81
2024/01/09 00:45:53;;;;;;;12.80;5.77;;;-2.00;99.90;;;;;;7308543;19;20715;-84
2024/01/09 00:48:21;;;;;;;15.60;5.90;;;-2.00;99.90;;;;;;7320943;19;20208;-86
2024/01/09 00:50:49;;;;;;;12.87;5.20;;;-2.10;99.90;;;;;;7298331;19;20200;-85
2024/01/09 00:53:14;;;;;;;14.40;6.40;;;-2.10;99.90;;;;;;7293816;19;20210;-85
2024/01/09 00:55:45;;;;;;;12.03;5.70;;;-2.20;99.90;;;;;;7294242;19;20701;-86
2024/01/09 00:58:11;;;;;;;14.00;6.43;;;-2.10;99.90;;;;;;7293611;19;20217;-82
2024/01/09 01:00:39;;;;;;;12.37;5.73;;;-2.10;99.90;;;;;;7293161;19;20180;-82
2024/01/09 01:03:05;;;;;;;13.20;5.33;;;-2.10;99.90;;;;;;7289059;19;20264;-86
2024/01/09 01:05:33;;;;;;;16.30;6.50;;;-2.30;99.90;;;;;;7289536;19;20213;-81
2024/01/09 01:08:01;;;;;;;12.67;5.60;;;-2.40;99.90;;;;;;7287748;19;20482;-81
2024/01/09 01:10:27;;;;;;;15.40;6.23;;;-2.40;99.90;;;;;;7290509;19;20189;-85
2024/01/09 01:12:55;;;;;;;13.40;5.67;;;-2.40;99.90;;;;;;7287537;19;20198;-82
2024/01/09 01:15:23;;;;;;;13.13;5.97;;;-2.30;99.90;;;;;;7309537;19;20246;-86
2024/01/09 01:17:49;;;;;;;11.93;5.97;;;-2.30;99.90;;;;;;7286449;19;20191;-82
2024/01/09 01:20:16;;;;;;;13.23;6.10;;;-2.30;99.90;;;;;;7260322;19;20223;-82
2024/01/09 01:22:42;;;;;;;12.50;5.20;;;-2.30;99.90;;;;;;7287941;19;20348;-81
2024/01/09 01:25:09;;;;;;;13.13;6.13;;;-2.40;99.90;;;;;;7291203;19;20622;-81
2024/01/09 01:27:34;;;;;;;10.77;5.30;;;-2.40;99.90;;;;;;7292532;19;20216;-83
2024/01/09 01:30:01;;;;;;;10.67;4.77;;;-2.40;99.90;;;;;;7287515;19;20197;-83
2024/01/09 01:32:27;;;;;;;14.70;6.63;;;-2.50;99.90;;;;;;7266478;19;20194;-85
2024/01/09 01:34:53;;;;;;;12.33;5.60;;;-2.50;99.90;;;;;;7288083;19;20224;-84
2024/01/09 01:37:20;;;;;;;15.47;6.00;;;-2.50;99.90;;;;;;7310853;19;20200;-84
2024/01/09 01:39:46;;;;;;;14.30;6.13;;;-2.60;99.90;;;;;;7289388;19;20188;-84
2024/01/09 01:42:14;;;;;;;13.53;5.43;;;-2.60;99.90;;;;;;7285011;19;20197;-84
2024/01/09 01:44:40;;;;;;;13.67;5.80;;;-2.60;99.90;;;;;;7297114;19;20191;-85
2024/01/09 01:47:10;;;;;;;13.27;6.00;;;-2.50;99.90;;;;;;7300385;19;20203;-81
2024/01/09 01:49:42;;;;;;;12.30;5.20;;;-2.50;99.90;;;;;;7295031;19;20212;-81
2024/01/09 01:52:09;;;;;;;12.03;5.20;;;-2.50;99.90;;;;;;7299552;19;20209;-84
2024/01/09 01:54:37;;;;;;;15.77;6.03;;;-2.50;99.90;;;;;;7303800;19;20228;-81
2024/01/09 01:57:11;;;;;;;11.97;5.40;;;-2.40;99.90;;;;;;7297983;19;20652;-81
2024/01/09 01:59:45;;;;;;;17.23;6.07;;;-2.40;99.90;;;;;;7298084;19;20205;-85
2024/01/09 02:02:16;;;;;;;14.93;6.63;;;-2.40;99.90;;;;;;7301249;19;20710;-85
2024/01/09 02:04:45;;;;;;;12.57;6.10;;;-2.50;99.90;;;;;;7303132;19;20186;-81
2024/01/09 02:07:11;;;;;;;13.30;5.30;;;-2.50;99.90;;;;;;7298920;19;20298;-84
2024/01/09 02:09:40;;;;;;;14.57;6.63;;;-2.50;99.90;;;;;;7262741;19;20189;-84
2024/01/09 02:12:06;;;;;;;14.47;5.50;;;-2.50;99.90;;;;;;7302814;19;20196;-81
2024/01/09 02:14:35;;;;;;;12.57;5.67;;;-2.60;99.90;;;;;;7299819;19;20203;-81
2024/01/09 02:17:03;;;;;;;12.87;5.97;;;-2.60;99.90;;;;;;7291518;19;20188;-84
2024/01/09 02:19:30;;;;;;;14.50;6.37;;;-2.50;99.90;;;;;;7265961;19;20340;-80
2024/01/09 02:21:57;;;;;;;15.27;6.13;;;-2.50;99.90;;;;;;7298855;19;20189;-84
2024/01/09 02:24:23;;;;;;;17.20;5.83;;;-2.60;99.90;;;;;;7294500;19;20692;-83
2024/01/09 02:27:09;;;;;;;13.17;6.00;;;-2.60;99.90;;;;;;7322682;19;20188;-84
2024/01/09 02:29:45;;;;;;;15.10;5.97;;;-2.50;99.90;;;;;;7196024;19;2004649;-83
2024/01/09 02:32:11;;;;;;;15.13;6.20;;;-2.70;99.90;;;;;;7296838;19;20187;-81
2024/01/09 02:34:41;;;;;;;14.20;5.87;;;-2.80;99.90;;;;;;7300832;19;20194;-82
2024/01/09 02:37:08;;;;;;;13.67;6.00;;;-2.80;99.90;;;;;;7295966;19;20227;-85
2024/01/09 02:39:34;;;;;;;13.53;5.73;;;-2.70;99.90;;;;;;7297355;19;20205;-81
2024/01/09 02:42:00;;;;;;;13.57;5.60;;;-2.70;99.90;;;;;;7289725;19;20565;-81
2024/01/09 02:44:25;;;;;;;13.93;6.20;;;-2.70;99.90;;;;;;7283581;19;20706;-81
2024/01/09 02:46:51;;;;;;;14.73;6.13;;;-2.60;99.90;;;;;;7303454;19;20200;-80
2024/01/09 02:49:18;;;;;;;14.77;6.40;;;-2.50;99.90;;;;;;7280719;19;20193;-81
2024/01/09 02:51:44;;;;;;;16.07;6.10;;;-2.50;99.90;;;;;;7285749;19;20643;-80
2024/01/09 02:54:10;;;;;;;14.70;6.10;;;-2.60;99.90;;;;;;7289985;19;20275;-85
2024/01/09 02:56:39;;;;;;;14.37;6.33;;;-2.70;99.90;;;;;;7281674;19;20654;-80
2024/01/09 02:59:05;;;;;;;14.60;6.43;;;-2.70;99.90;;;;;;7295146;19;20218;-84
2024/01/09 03:01:32;;;;;;;14.20;6.30;;;-2.60;99.90;;;;;;7298723;19;20262;-83
2024/01/09 03:03:57;;;;;;;13.20;6.13;;;-2.60;99.90;;;;;;7291853;19;20205;-80
2024/01/09 03:06:23;;;;;;;14.33;6.70;;;-2.60;99.90;;;;;;7294573;19;20189;-84
2024/01/09 03:08:49;;;;;;;13.73;6.70;;;-2.60;99.90;;;;;;7314550;19;20285;-80
2024/01/09 03:11:16;;;;;;;16.53;6.00;;;-2.70;99.90;;;;;;7295760;19;20205;-84
2024/01/09 03:13:42;;;;;;;14.80;6.57;;;-2.70;99.90;;;;;;7278828;19;20187;-80
2024/01/09 03:16:12;;;;;;;19.83;6.70;;;-2.80;99.90;;;;;;7287536;19;20298;-84
2024/01/09 03:18:40;;;;;;;17.13;6.37;;;-2.70;99.90;;;;;;7288693;19;20192;-81
2024/01/09 03:21:07;;;;;;;16.20;6.67;;;-2.70;99.90;;;;;;7293051;19;20195;-85
2024/01/09 03:23:33;;;;;;;14.37;6.43;;;-2.70;99.90;;;;;;7286665;19;20195;-85
2024/01/09 03:25:59;;;;;;;14.30;6.03;;;-2.70;99.90;;;;;;7294600;19;20769;-84
2024/01/09 03:28:26;;;;;;;17.07;6.70;;;-2.70;99.90;;;;;;7294737;19;20191;-84
2024/01/09 03:30:56;;;;;;;14.27;6.40;;;-2.70;99.90;;;;;;7296121;19;20203;-81
2024/01/09 03:33:24;;;;;;;13.93;5.93;;;-2.70;99.90;;;;;;7301115;19;20201;-81
2024/01/09 03:35:51;;;;;;;16.23;6.80;;;-2.80;99.90;;;;;;7315500;19;20194;-84
2024/01/09 03:38:17;;;;;;;13.53;6.20;;;-2.70;99.90;;;;;;7295527;19;20222;-82
2024/01/09 03:40:43;;;;;;;14.57;6.53;;;-2.60;99.90;;;;;;7290756;19;20300;-81
2024/01/09 03:43:09;;;;;;;16.97;6.90;;;-2.60;99.90;;;;;;7292094;19;20191;-81
2024/01/09 03:45:35;;;;;;;14.97;6.40;;;-2.70;99.90;;;;;;7291547;19;20259;-85
2024/01/09 03:48:01;;;;;;;16.97;7.23;;;-2.80;99.90;;;;;;7290441;19;20181;-84
2024/01/09 03:50:27;;;;;;;14.30;6.40;;;-2.70;99.90;;;;;;7287314;19;20327;-81
2024/01/09 03:52:53;;;;;;;12.30;6.00;;;-2.70;99.90;;;;;;7286797;19;20185;-83
2024/01/09 03:55:19;;;;;;;15.13;6.37;;;-2.90;99.90;;;;;;7307498;19;20200;-85
2024/01/09 03:57:45;;;;;;;13.37;6.07;;;-2.80;99.90;;;;;;7281777;19;20184;-84
2024/01/09 04:00:11;;;;;;;14.20;6.13;;;-2.90;99.90;;;;;;7283641;19;20215;-85
2024/01/09 04:02:38;;;;;;;15.67;5.93;;;-2.90;99.90;;;;;;7281415;19;20192;-84
2024/01/09 04:05:06;;;;;;;14.87;6.93;;;-2.90;99.90;;;;;;7281552;19;20291;-85
2024/01/09 04:07:31;;;;;;;14.23;5.87;;;-3.00;99.90;;;;;;7281425;19;20216;-85
2024/01/09 04:09:57;;;;;;;16.47;6.40;;;-3.00;99.90;;;;;;7283390;19;21045;-84
2024/01/09 04:12:23;;;;;;;13.90;5.80;;;-3.00;99.90;;;;;;7283558;19;20643;-85
2024/01/09 04:14:49;;;;;;;17.33;6.90;;;-3.00;99.90;;;;;;7304755;19;20220;-85
2024/01/09 04:17:16;;;;;;;15.47;6.00;;;-2.90;99.90;;;;;;7283922;19;20205;-84
2024/01/09 04:19:42;;;;;;;14.73;6.50;;;-2.90;99.90;;;;;;7283615;19;20207;-85
2024/01/09 04:22:08;;;;;;;16.33;6.57;;;-2.90;99.90;;;;;;7279538;19;20188;-80
2024/01/09 04:24:34;;;;;;;14.97;6.63;;;-2.90;99.90;;;;;;7277505;19;20180;-81
2024/01/09 04:27:02;;;;;;;15.00;6.50;;;-2.90;99.90;;;;;;7282073;19;20843;-84
2024/01/09 04:29:28;;;;;;;14.53;6.80;;;-2.90;99.90;;;;;;7281277;19;20192;-81
2024/01/09 04:31:54;;;;;;;14.10;6.20;;;-2.90;99.90;;;;;;7279228;19;20857;-81
2024/01/09 04:34:20;;;;;;;13.57;5.60;;;-2.90;99.90;;;;;;7300699;19;20177;-81
2024/01/09 04:36:46;;;;;;;14.50;6.27;;;-2.90;99.90;;;;;;7278053;19;20657;-84
2024/01/09 04:39:12;;;;;;;13.77;6.00;;;-2.90;99.90;;;;;;7282747;19;20328;-85
2024/01/09 04:41:38;;;;;;;15.00;6.73;;;-3.00;99.90;;;;;;7283305;19;20216;-85
2024/01/09 04:44:04;;;;;;;14.87;6.60;;;-3.10;99.90;;;;;;7280897;19;20198;-84
2024/01/09 04:46:29;;;;;;;17.07;6.40;;;-3.00;99.90;;;;;;7280894;19;20251;-84
2024/01/09 04:48:55;;;;;;;14.60;6.60;;;-3.00;99.90;;;;;;7280531;19;20188;-81
2024/01/09 04:51:21;;;;;;;14.13;6.80;;;-3.00;99.90;;;;;;7301736;19;20207;-81
2024/01/09 04:53:47;;;;;;;14.13;6.40;;;-3.10;99.90;;;;;;7283573;19;20190;-81
2024/01/09 04:56:13;;;;;;;15.07;6.70;;;-3.20;99.90;;;;;;7285604;19;20186;-85
2024/01/09 04:58:39;;;;;;;15.87;7.07;;;-3.10;99.90;;;;;;7287562;19;20194;-85
2024/01/09 05:01:09;;;;;;;15.03;5.97;;;-3.10;99.90;;;;;;7280207;19;20202;-81
2024/01/09 05:03:35;;;;;;;14.20;5.50;;;-3.10;99.90;;;;;;7280165;19;20207;-81
2024/01/09 05:06:02;;;;;;;13.50;5.07;;;-3.20;99.90;;;;;;7279458;19;20182;-81
2024/01/09 05:08:28;;;;;;;14.37;6.27;;;-3.30;99.90;;;;;;7281870;19;20195;-84
2024/01/09 05:10:54;;;;;;;13.40;5.60;;;-3.20;99.90;;;;;;7281025;19;20762;-80
2024/01/09 05:13:20;;;;;;;19.07;6.37;;;-3.20;99.90;;;;;;7302975;19;20195;-85
2024/01/09 05:15:46;;;;;;;15.83;6.30;;;-3.10;99.90;;;;;;7280447;19;20180;-84
2024/01/09 05:18:12;;;;;;;15.40;6.53;;;-3.20;99.90;;;;;;7281783;19;20203;-85
2024/01/09 05:20:38;;;;;;;15.03;6.17;;;-3.20;99.90;;;;;;7290260;19;20199;-81
2024/01/09 05:23:05;;;;;;;15.40;6.43;;;-3.20;99.90;;;;;;7288360;19;20634;-84
2024/01/09 05:25:31;;;;;;;13.83;5.70;;;-3.10;99.90;;;;;;7289488;19;20188;-84
2024/01/09 05:27:56;;;;;;;15.63;6.47;;;-3.10;99.90;;;;;;7287970;19;20296;-80
2024/01/09 05:30:22;;;;;;;14.97;6.57;;;-3.10;99.90;;;;;;7298677;19;20184;-84
2024/01/09 05:32:48;;;;;;;14.03;6.17;;;-3.10;99.90;;;;;;7314542;19;20658;-84
2024/01/09 05:35:14;;;;;;;15.20;6.47;;;-3.10;99.90;;;;;;7285668;19;20245;-80
2024/01/09 05:37:40;;;;;;;14.23;6.37;;;-3.10;99.90;;;;;;7290274;19;20689;-81
2024/01/09 05:40:07;;;;;;;13.83;6.23;;;-3.20;99.90;;;;;;7287904;19;20196;-81
2024/01/09 05:42:33;;;;;;;15.30;6.47;;;-3.10;99.90;;;;;;7285980;19;20179;-81
2024/01/09 05:44:58;;;;;;;16.10;6.70;;;-3.00;99.90;;;;;;7290369;19;20303;-80
2024/01/09 05:47:24;;;;;;;16.80;5.77;;;-3.00;99.90;;;;;;7285105;19;20663;-79
2024/01/09 05:49:50;;;;;;;14.17;6.57;;;-3.10;99.90;;;;;;7305459;19;20189;-81
2024/01/09 05:52:16;;;;;;;15.70;6.70;;;-3.10;99.90;;;;;;7283267;19;20538;-81
2024/01/09 05:54:46;;;;;;;14.13;6.37;;;-3.10;99.90;;;;;;7283924;19;20209;-81
2024/01/09 05:57:12;;;;;;;26.90;7.67;;;-3.10;99.90;;;;;;7285602;19;20664;-81
2024/01/09 05:59:37;;;;;;;14.27;6.13;;;-3.10;99.90;;;;;;7284624;19;20182;-81
2024/01/09 06:02:03;;;;;;;20.63;7.90;;;-3.10;99.90;;;;;;7284794;19;20203;-83
2024/01/09 06:04:29;;;;;;;15.47;6.50;;;-3.10;99.90;;;;;;7283284;19;20188;-84
2024/01/09 06:06:55;;;;;;;16.00;6.93;;;-3.20;99.90;;;;;;7283499;19;20213;-84
2024/01/09 06:09:20;;;;;;;16.33;6.00;;;-3.20;99.90;;;;;;7304673;19;20237;-84
2024/01/09 06:11:47;;;;;;;15.27;6.27;;;-3.20;99.90;;;;;;7283860;19;20664;-83
2024/01/09 06:14:13;;;;;;;16.77;5.80;;;-3.30;99.90;;;;;;7281867;19;20212;-83
2024/01/09 06:16:39;;;;;;;15.50;5.97;;;-3.40;99.90;;;;;;7286217;19;20188;-88
2024/01/09 06:19:05;;;;;;;13.07;5.60;;;-3.40;99.90;;;;;;7281340;19;20213;-81
2024/01/09 06:21:31;;;;;;;15.87;5.77;;;-3.40;99.90;;;;;;7283935;19;20190;-86
2024/01/09 06:23:56;;;;;;;14.30;6.30;;;-3.40;99.90;;;;;;7282178;19;20263;-82
2024/01/09 06:26:22;;;;;;;14.10;5.63;;;-3.40;99.90;;;;;;7295007;19;20200;-82
2024/01/09 06:28:48;;;;;;;13.50;5.57;;;-3.40;99.90;;;;;;7301770;19;20195;-82
2024/01/09 06:31:16;;;;;;;14.93;6.30;;;-3.40;99.90;;;;;;7289154;19;20191;-83
2024/01/09 06:33:42;;;;;;;13.93;6.03;;;-3.40;99.90;;;;;;7285404;19;20232;-82
2024/01/09 06:36:08;;;;;;;17.53;7.97;;;-3.40;99.90;;;;;;7284680;19;21057;-83
2024/01/09 06:38:34;;;;;;;13.07;6.03;;;-3.30;99.90;;;;;;7289389;19;20202;-83
2024/01/09 06:41:00;;;;;;;13.03;5.73;;;-3.30;99.90;;;;;;7286728;19;20183;-82
2024/01/09 06:43:26;;;;;;;14.60;6.23;;;-3.30;99.90;;;;;;7284836;19;20185;-81
2024/01/09 06:45:52;;;;;;;13.73;6.03;;;-3.30;99.90;;;;;;7310806;19;20212;-81
2024/01/09 06:48:17;;;;;;;15.60;6.70;;;-3.30;99.90;;;;;;7296806;19;20231;-83
2024/01/09 06:50:43;;;;;;;12.57;5.73;;;-3.30;99.90;;;;;;7285628;19;20689;-80
2024/01/09 06:53:12;;;;;;;15.50;6.10;;;-3.40;99.90;;;;;;7292094;19;20197;-84
2024/01/09 06:55:39;;;;;;;11.83;5.70;;;-3.50;99.90;;;;;;7296172;19;20197;-82
2024/01/09 06:58:08;;;;;;;15.97;6.23;;;-3.40;99.90;;;;;;7293627;19;20679;-83
2024/01/09 07:00:34;;;;;;;15.67;6.87;;;-3.40;99.90;;;;;;7294852;19;20289;-81
2024/01/09 07:02:59;;;;;;;15.30;5.43;;;-3.30;99.90;;;;;;7294940;19;20195;-81
2024/01/09 07:05:28;;;;;;;15.87;6.77;;;-3.30;99.90;;;;;;7296082;19;20185;-81
2024/01/09 07:07:54;;;;;;;16.80;7.17;;;-3.30;99.90;;;;;;7294002;19;20664;-83
2024/01/09 07:10:20;;;;;;;16.03;6.27;;;-3.20;99.90;;;;;;7311531;19;20183;-80
2024/01/09 07:12:46;;;;;;;15.30;5.97;;;-3.30;99.90;;;;;;7283191;19;20256;-84
2024/01/09 07:15:14;;;;;;;15.17;5.60;;;-3.50;99.90;;;;;;7282998;19;20295;-83
2024/01/09 07:17:42;;;;;;;14.40;5.43;;;-3.40;99.90;;;;;;7284975;19;20184;-81
2024/01/09 07:20:08;;;;;;;15.10;6.77;;;-3.40;99.90;;;;;;7281905;19;20190;-81
2024/01/09 07:22:34;;;;;;;15.93;6.60;;;-3.30;99.90;;;;;;7285243;19;20195;-81
2024/01/09 07:25:00;;;;;;;15.00;5.93;;;-3.30;99.90;;;;;;7287329;19;20199;-82
2024/01/09 07:27:26;;;;;;;13.97;6.30;;;-3.30;99.90;;;;;;7298389;19;20211;-81
2024/01/09 07:29:52;;;;;;;15.20;6.37;;;-3.30;99.90;;;;;;7305434;19;20205;-81
2024/01/09 07:32:18;;;;;;;14.53;6.23;;;-3.30;99.90;;;;;;7312248;19;20200;-81
2024/01/09 07:34:48;;;;;;;14.37;6.33;;;-3.30;99.90;;;;;;7297519;19;20226;-82
2024/01/09 07:37:15;;;;;;;14.33;6.27;;;-3.30;99.90;;;;;;7271777;19;20187;-83
2024/01/09 07:39:42;;;;;;;14.03;6.20;;;-3.40;99.90;;;;;;7297270;19;20225;-81
2024/01/09 07:42:08;;;;;;;12.90;5.43;;;-3.50;99.90;;;;;;7293808;19;20186;-84
2024/01/09 07:44:35;;;;;;;14.87;6.07;;;-3.40;99.90;;;;;;7294689;19;20223;-84
2024/01/09 07:47:01;;;;;;;15.37;6.17;;;-3.40;99.90;;;;;;7294726;19;20656;-84
2024/01/09 07:49:27;;;;;;;14.80;6.00;;;-3.40;99.90;;;;;;7290300;19;20466;-84
2024/01/09 07:51:53;;;;;;;14.23;5.97;;;-3.40;99.90;;;;;;7305678;19;20566;-84
2024/01/09 07:54:19;;;;;;;12.37;5.53;;;-3.50;99.90;;;;;;7312328;19;20591;-84
2024/01/09 07:56:49;;;;;;;14.23;6.33;;;-3.60;99.90;;;;;;7289043;19;20198;-84
2024/01/09 07:59:15;;;;;;;12.47;5.70;;;-3.60;99.90;;;;;;7291141;19;20186;-81
2024/01/09 08:01:40;;;;;;;14.53;5.60;;;-3.60;99.90;;;;;;7293653;19;20201;-84
2024/01/09 08:04:07;;;;;;;14.80;6.03;;;-3.50;99.90;;;;;;7296446;19;20200;-81
2024/01/09 08:06:32;;;;;;;14.33;6.30;;;-3.60;99.90;;;;;;7290116;19;20225;-82
2024/01/09 08:09:00;;;;;;;13.13;5.77;;;-3.50;99.90;;;;;;7292887;19;20183;-82
2024/01/09 08:11:26;;;;;;;14.73;5.87;;;-3.50;99.90;;;;;;7287627;19;20193;-81
2024/01/09 08:13:56;;;;;;;13.07;5.50;;;-3.50;99.90;;;;;;7311555;19;20635;-81
2024/01/09 08:16:22;;;;;;;16.87;6.10;;;-3.50;99.90;;;;;;7292562;19;20197;-83
2024/01/09 08:18:49;;;;;;;12.67;5.83;;;-3.50;99.90;;;;;;7292775;19;20173;-84
2024/01/09 08:21:17;;;;;;;12.80;5.60;;;-3.50;99.90;;;;;;7292394;19;20947;-81
2024/01/09 08:23:48;;;;;;;13.73;5.90;;;-3.50;99.90;;;;;;7295957;19;20215;-84
2024/01/09 08:26:14;;;;;;;12.73;5.90;;;-3.50;99.90;;;;;;7291758;19;20224;-84
2024/01/09 08:28:41;;;;;;;16.43;6.17;;;-3.50;99.90;;;;;;7287926;19;20194;-82
2024/01/09 08:31:10;;;;;;;15.10;5.53;;;-3.40;99.90;;;;;;7289601;19;20190;-82
2024/01/09 08:33:37;;;;;;;16.47;6.23;;;-3.40;99.90;;;;;;7291955;19;20197;-81
2024/01/09 08:36:03;;;;;;;12.80;5.73;;;-3.40;99.90;;;;;;7291129;19;20241;-84
2024/01/09 08:38:29;;;;;;;13.73;5.70;;;-3.30;99.90;;;;;;7289817;19;20183;-81
2024/01/09 08:40:56;;;;;;;14.37;6.03;;;-3.30;99.90;;;;;;7284444;19;20660;-82
2024/01/09 08:43:22;;;;;;;12.20;5.07;;;-3.40;99.90;;;;;;7306169;19;20250;-84
2024/01/09 08:45:50;;;;;;;15.03;6.33;;;-3.50;99.90;;;;;;7289642;19;20187;-84
2024/01/09 08:48:17;;;;;;;14.33;6.40;;;-3.40;99.90;;;;;;7287172;19;20188;-81
2024/01/09 08:50:43;;;;;;;12.77;5.93;;;-3.40;99.90;;;;;;7291890;19;20675;-83
2024/01/09 08:53:10;;;;;;;16.73;6.23;;;-3.40;99.90;;;;;;7289821;19;20193;-83
2024/01/09 08:55:36;;;;;;;13.77;6.00;;;-3.30;99.90;;;;;;7275449;19;21153;-84
2024/01/09 08:58:04;;;;;;;12.63;5.23;;;-3.30;99.90;;;;;;7287240;19;20197;-84
2024/01/09 09:00:34;;;;;;;13.20;5.43;;;-3.30;99.90;;;;;;7289182;19;20202;-83
2024/01/09 09:03:00;;;;;;;13.57;5.50;;;-3.30;99.90;;;;;;7288195;19;20201;-81
2024/01/09 09:05:26;;;;;;;14.30;5.80;;;-3.40;99.90;;;;;;7289049;19;20204;-81
2024/01/09 09:07:53;;;;;;;14.40;5.60;;;-3.30;99.90;;;;;;7310770;19;20211;-84
2024/01/09 09:10:21;;;;;;;13.90;5.70;;;-3.20;99.90;;;;;;7291741;19;20194;-84
2024/01/09 09:12:47;;;;;;;12.43;5.20;;;-3.20;99.90;;;;;;7291157;19;20235;-82
2024/01/09 09:15:16;;;;;;;14.67;5.97;;;-3.30;99.90;;;;;;7293323;19;20200;-81
2024/01/09 09:17:42;;;;;;;14.27;5.43;;;-3.10;99.90;;;;;;7278484;19;20211;-83
2024/01/09 09:20:09;;;;;;;15.00;5.57;;;-3.20;99.90;;;;;;7290100;19;20650;-83
2024/01/09 09:22:35;;;;;;;13.27;5.50;;;-3.20;99.90;;;;;;7282047;19;20195;-81
2024/01/09 09:25:02;;;;;;;14.43;6.03;;;-3.10;99.90;;;;;;7293249;19;20221;-83
2024/01/09 09:27:28;;;;;;;15.57;5.80;;;-3.00;99.90;;;;;;7290141;19;20193;-80
2024/01/09 09:29:54;;;;;;;12.93;5.67;;;-2.90;99.90;;;;;;7299584;19;20202;-83
2024/01/09 09:32:21;;;;;;;12.27;5.50;;;-2.90;99.90;;;;;;7313715;19;20227;-83
2024/01/09 09:34:46;;;;;;;12.03;5.47;;;-2.80;99.90;;;;;;7294369;19;20189;-86
2024/01/09 09:37:13;;;;;;;13.20;5.30;;;-2.70;99.90;;;;;;7292895;19;20197;-80
2024/01/09 09:39:39;;;;;;;15.70;5.70;;;-2.70;99.90;;;;;;7283767;19;20225;-84
2024/01/09 09:42:05;;;;;;;14.70;5.93;;;-2.60;99.90;;;;;;7290301;19;20187;-81
2024/01/09 09:44:32;;;;;;;13.50;5.60;;;-2.60;99.90;;;;;;7288584;19;20245;-83
2024/01/09 09:47:01;;;;;;;10.67;4.97;;;-2.60;99.90;;;;;;7313755;19;20182;-82
2024/01/09 09:49:31;;;;;;;12.80;4.83;;;-2.60;99.90;;;;;;7267185;19;20201;-82
2024/01/09 09:51:59;;;;;;;15.60;6.13;;;-2.60;99.90;;;;;;7288435;19;20189;-83
2024/01/09 09:54:27;;;;;;;12.63;5.33;;;-2.50;99.90;;;;;;7304278;19;20303;-82
2024/01/09 09:56:56;;;;;;;12.87;5.60;;;-2.50;99.90;;;;;;7295440;19;20188;-83
2024/01/09 09:59:23;;;;;;;13.60;5.43;;;-2.40;99.90;;;;;;7316159;19;20194;-82
2024/01/09 10:01:50;;;;;;;13.37;6.00;;;-2.50;99.90;;;;;;7293798;19;20275;-81
2024/01/09 10:04:51;;;;;;;11.40;5.40;;;-2.40;99.90;;;;;;7290259;19;20192;-82
2024/01/09 10:07:22;;;;;;;17.13;6.27;;;-2.40;99.90;;;;;;7196711;19;2004339;-83
2024/01/09 10:09:55;;;;;;;14.47;5.63;;;-2.40;99.90;;;;;;7298746;19;20191;-81
2024/01/09 10:12:25;;;;;;;14.07;5.10;;;-2.30;99.90;;;;;;7297300;19;20199;-80
2024/01/09 10:15:09;;;;;;;10.20;5.03;;;-2.30;99.90;;;;;;7299482;19;20195;-81
2024/01/09 10:17:36;;;;;;;14.27;5.80;;;-2.30;99.90;;;;;;7189742;19;2004849;-81
2024/01/09 10:20:08;;;;;;;10.87;5.27;;;-2.20;99.90;;;;;;7302558;19;20216;-80
2024/01/09 10:22:37;;;;;;;13.67;5.73;;;-2.00;99.90;;;;;;7296539;19;20191;-83
2024/01/09 10:25:07;;;;;;;13.07;5.30;;;-1.80;99.90;;;;;;7293204;19;20197;-81
2024/01/09 10:27:36;;;;;;;18.57;5.73;;;-1.10;99.90;;;;;;7304292;19;20188;-84
2024/01/09 10:30:08;;;;;;;15.23;6.10;;;-0.30;99.90;;;;;;7299598;19;20189;-81
2024/01/09 10:32:47;;;;;;;12.10;5.77;;;0.50;99.90;;;;;;7295162;19;20192;-84
2024/01/09 10:35:17;;;;;;;10.50;5.00;;;1.10;99.90;;;;;;7290562;19;20219;-84
2024/01/09 10:37:44;;;;;;;13.80;6.10;;;1.30;99.90;;;;;;7290000;19;20211;-81
2024/01/09 10:40:11;;;;;;;13.07;6.67;;;1.30;99.90;;;;;;7295396;19;20189;-84
2024/01/09 10:42:47;;;;;;;14.40;6.07;;;1.90;99.90;;;;;;7292925;19;20200;-82
2024/01/09 10:45:19;;;;;;;12.93;6.17;;;2.00;99.90;;;;;;7271766;19;20711;-84
2024/01/09 10:47:46;;;;;;;15.40;6.40;;;2.10;99.90;;;;;;7296815;19;20217;-82
2024/01/09 10:50:18;;;;;;;12.33;5.33;;;2.30;99.90;;;;;;7292376;19;20225;-84
2024/01/09 10:52:46;;;;;;;11.87;5.30;;;2.40;99.90;;;;;;7292817;19;20547;-84
2024/01/09 10:55:12;;;;;;;13.97;5.90;;;2.60;99.90;;;;;;7296397;19;20223;-83
2024/01/09 10:57:41;;;;;;;13.87;5.10;;;2.90;99.90;;;;;;7287207;19;20557;-82
2024/01/09 11:00:16;;;;;;;12.80;5.50;;;3.40;99.90;;;;;;7289810;19;20198;-81
2024/01/09 11:02:42;;;;;;;12.07;4.97;;;3.70;99.90;;;;;;7295362;19;20194;-85
2024/01/09 11:05:11;;;;;;;10.10;4.90;;;4.00;99.90;;;;;;7295196;19;20191;-81
2024/01/09 11:07:37;;;;;;;11.50;5.33;;;3.80;99.90;;;;;;7291815;19;20222;-84
2024/01/09 11:10:08;;;;;;;13.10;5.10;;;3.30;99.90;;;;;;7291156;19;20194;-82
2024/01/09 11:12:38;;;;;;;12.23;4.77;;;3.50;99.90;;;;;;7290221;19;20667;-83
2024/01/09 11:15:15;;;;;;;12.40;5.50;;;3.20;99.90;;;;;;7287993;19;20226;-84
2024/01/09 11:17:54;;;;;;;10.27;4.63;;;2.90;99.90;;;;;;7289612;19;20204;-84
2024/01/09 11:20:21;;;;;;;11.23;4.53;;;2.50;99.90;;;;;;7295579;19;20589;-84
2024/01/09 11:22:48;;;;;;;12.53;5.00;;;2.50;99.90;;;;;;7299227;19;20194;-84
2024/01/09 11:25:22;;;;;;;11.70;4.87;;;2.60;99.90;;;;;;7296203;19;20277;-85
2024/01/09 11:27:55;;;;;;;10.53;4.87;;;2.90;99.90;;;;;;7295390;19;20303;-83
2024/01/09 11:30:32;;;;;;;11.13;5.07;;;3.30;99.90;;;;;;7290601;19;20193;-84
2024/01/09 11:33:18;;;;;;;10.50;5.30;;;3.30;99.90;;;;;;7273107;19;20205;-83
2024/01/09 11:35:44;;;;;;;11.80;4.70;;;3.20;99.90;;;;;;7293325;19;20333;-81
2024/01/09 11:38:11;;;;;;;12.47;4.97;;;3.50;99.90;;;;;;7290461;19;20261;-85
2024/01/09 11:40:36;;;;;;;10.90;4.70;;;3.50;99.90;;;;;;7289544;19;20206;-85
2024/01/09 11:43:02;;;;;;;10.03;4.80;;;3.50;99.90;;;;;;7291304;19;20193;-85
2024/01/09 11:45:32;;;;;;;10.53;5.07;;;3.90;99.90;;;;;;7290659;19;20662;-84
2024/01/09 11:48:04;;;;;;;10.43;4.67;;;4.20;99.90;;;;;;7290025;19;20595;-85
2024/01/09 11:50:31;;;;;;;10.67;5.27;;;4.10;99.90;;;;;;7290858;19;20318;-84
2024/01/09 11:53:01;;;;;;;11.33;5.00;;;3.70;99.90;;;;;;7295070;19;20185;-81
2024/01/09 11:55:33;;;;;;;10.60;4.90;;;3.60;99.90;;;;;;7279329;19;20189;-82
2024/01/09 11:58:00;;;;;;;9.90;4.77;;;3.50;99.90;;;;;;7295590;19;20189;-81
2024/01/09 12:00:27;;;;;;;10.27;4.90;;;3.90;99.90;;;;;;7293528;19;20225;-84
2024/01/09 12:02:55;;;;;;;11.27;4.37;;;3.30;99.90;;;;;;7313679;19;20279;-82
2024/01/09 12:05:25;;;;;;;14.17;5.23;;;3.20;99.90;;;;;;7294082;19;20189;-81
2024/01/09 12:07:52;;;;;;;10.70;4.77;;;2.90;99.90;;;;;;7291531;19;20198;-84
2024/01/09 12:10:21;;;;;;;9.57;4.20;;;2.90;99.90;;;;;;7292546;19;20189;-85
2024/01/09 12:12:50;;;;;;;11.40;5.13;;;2.80;99.90;;;;;;7292655;19;20189;-80
2024/01/09 12:15:21;;;;;;;9.30;4.60;;;2.70;99.90;;;;;;7295772;19;20188;-81
2024/01/09 12:17:57;;;;;;;11.77;4.60;;;2.90;99.90;;;;;;7297265;19;20186;-82
2024/01/09 12:20:23;;;;;;;10.23;4.97;;;3.00;99.90;;;;;;7287443;19;20189;-83
2024/01/09 12:22:49;;;;;;;13.33;4.57;;;3.20;99.90;;;;;;7288123;19;20186;-82
2024/01/09 12:25:16;;;;;;;12.50;5.00;;;3.50;99.90;;;;;;7283802;19;20662;-84
2024/01/09 12:27:42;;;;;;;10.73;4.80;;;3.40;99.90;;;;;;7289218;19;20177;-83
2024/01/09 12:30:11;;;;;;;13.43;4.93;;;3.60;99.90;;;;;;7294725;19;20754;-84
2024/01/09 12:32:40;;;;;;;13.10;4.43;;;3.40;99.90;;;;;;7299464;19;20259;-81
2024/01/09 12:35:06;;;;;;;13.17;4.73;;;3.10;99.90;;;;;;7300309;19;20198;-82
2024/01/09 12:37:32;;;;;;;9.70;4.47;;;2.80;99.90;;;;;;7298215;19;20206;-83
2024/01/09 12:39:59;;;;;;;10.07;4.67;;;3.10;99.90;;;;;;7294002;19;20194;-81